Airfield :







YOU CAN JOIN US ON...

 
LOGIN :

Register | Disclaimer

   EN    FR    IT 

 









Legend :    VFR   Marginal VFR   IFR   Intensive IFR   Very Intensive IFR
Visi :
Ceiling :
>= 8 km
>= 3000ft
5 to 8 km
1000 to 3000 ft
1500m to 5 km
500 to 1000 ft
800 to 1500m
200 to 500 ft
< 800m
< 200 ft
Symbols :   Thunderstorms  Fog  Heavy snow  Heavy precipitations  Wind > 20 kt






- Airport Elevation : 121 ft
- IATA code : YBX


CYBX - Lourdes De Blanc Sablon

CURRENT METAR :
  • 132200Z 02018G26KT 15SM FEW040 08/04 A2988 RMK SC2 SLP123

EXPIRED METARs :
  • 132100Z 36002KT 15SM FEW250 09/06 A2985 RMK CI1 PRESRR SLP112
  • 132000Z 27006KT 15SM FEW040 FEW250 10/07 A2981 RMK SC1CI1 SLP098

TAF TAF CYBX
Valid from the 13 at 20:00 until the 14 at 08:00 UTC


131940Z 1320/1408 03008KT P6SM BKN080
FM132200 11008KT P6SM SCT080
BECMG 1322/1324 04012G22KT
FM140200 05012KT P6SM BKN015 RMK NXT FCST BY 140200Z



MET'MAP, your aeronautical weather chart ! - Copyright ORBIFLY December 2007 - Disclaimer

ORBIFLY MET'MAP TEAM :

Programming & Development : Alexandra Zaïnal
Concept & Development : Baudouin d'Aumeries
Co-Development & Prog : Marc-Olivier Méhu
Technical & hardware support : Manuel Goepfert

Contact : metmap@orbifly.com




SOURCES & CREDITS :

   NOAA